Sunday, July 22, 2018, 12:04 PM EDT
Back to Local

KBUF, Greater Buffalo International Airport

Location: Buffalo, NY, United States Lat: 42.933
Local Time: 12:04 PM EDT (16:04 GMT) Lon: -78.733
Time Zone: US/Eastern Elev: 725 ft

Show me the last for .
Show Coded

Time T Td Feel RH Dir Speed Gust Alt SLP Vis Weather Sky Remarks
2018-07-22 11:39 70 64 - 83 130° 7 - 29.73 - 10 SCT012 BKN019 BKN029 BKN200 None
2018-07-22 10:54 67 63 - 87 100° 10 - 29.72 29.71 10 FEW010 BKN012 OVC045 1-hr Precip Total: Trace
6-hr Precip Total (11am): 0.00"
2018-07-22 10:28 66 63 - 89 80° 10 - 29.71 - 10 BKN011 BKN014 OVC045 1-hr Precip Total: Trace
2018-07-22 10:10 66 63 - 89 60° 10 - 29.70 - 10 -RA BKN008 BKN013 OVC045 1-hr Precip Total: Trace
2018-07-22 09:54 65 63 - 93 60° 10 - 29.71 29.70 9 -RA BKN010 BKN015 OVC045 1-hr Precip Total: Trace
2018-07-22 09:43 66 63 - 89 50° 13 - 29.70 - 10 -RA BKN010 BKN015 OVC045 1-hr Precip Total: Trace
2018-07-22 09:25 65 63 - 93 60° 14 - 29.70 - 10 -RA SCT010 BKN015 BKN041 1-hr Precip Total: Trace
2018-07-22 09:09 65 63 - 93 60° 16 - 29.71 - 10 BKN013 OVC041 None
2018-07-22 08:54 65 63 - 93 60° 15 - 29.71 29.70 10 SCT009 BKN043 OVC050 Peak wind: 29 mph (26 kts) from 60° at 23 min
1-hr Precip Total: Trace
2018-07-22 08:30 64 62 - 93 60° 18 30 29.71 - 9 -RA SCT009 SCT013 OVC047 Peak wind: 29 mph (26 kts) from 60° at 23 min
1-hr Precip Total: Trace
2018-07-22 07:54 63 62 - 96 50° 15 - 29.72 29.71 8 -RA BKN008 OVC011 1-hr Precip Total: 0.18"
6-hr Precip Total (8am): 0.87"
24-hr Precip Total (8am): 1.03"
6-hr Min Temp (8am): 60.1°F
6-hr Max Temp (8am): 63.0°F
2018-07-22 07:28 63 62 - 96 30° 12 - 29.72 - 3 +RA BR BKN008 OVC013 1-hr Precip Total: 0.14"
2018-07-22 07:11 63 62 - 96 30° 10 - 29.73 - 3 +RA BR SCT006 OVC011 1-hr Precip Total: 0.09"
2018-07-22 06:54 63 62 - 96 40° 14 - 29.73 29.72 2 +RA BR BKN006 BKN010 OVC026 1-hr Precip Total: 0.37"
2018-07-22 06:39 63 62 - 96 30° 16 21 29.74 - 1 RA BR BKN006 OVC010 1-hr Precip Total: 0.30"
2018-07-22 05:54 61 61 - 100 20° 10 - 29.76 29.75 2 RA BR BKN004 BKN012 OVC032 1-hr Precip Total: 0.13"
2018-07-22 05:48 61 61 - 100 20° 10 - 29.77 - 2 RA BR BKN004 BKN014 OVC039 1-hr Precip Total: 0.13"
2018-07-22 05:35 61 61 - 100 30° 9 - 29.78 - 2 RA BR BKN006 BKN021 OVC039 None
2018-07-22 05:14 61 59 - 93 40° 10 - 29.79 - 5 RA BR FEW006 BKN021 OVC039 1-hr Precip Total: 0.06"
2018-07-22 04:54 61 59 - 93 40° 14 - 29.80 29.79 5 +RA BR FEW034 OVC046 1-hr Precip Total: 0.06"
6-hr Precip Total (5am): 0.19"
2018-07-22 03:54 60 59 - 96 40° 10 - 29.83 29.82 8 -RA FEW050 OVC070 1-hr Precip Total: 0.07"
2018-07-22 02:54 60 58 - 92 60° 9 - 29.86 29.85 7 -RA FEW050 OVC065 1-hr Precip Total: 0.06"
2018-07-22 01:54 61 57 - 86 80° 8 - 29.87 29.86 10 SCT048 BKN060 OVC110 1-hr Precip Total: 0.01"
6-hr Precip Total (2am): 0.16"
6-hr Min Temp (2am): 59.0°F
6-hr Max Temp (2am): 75.0°F
2018-07-22 00:54 59 57 - 93 110° 8 - 29.90 29.89 8 -RA BKN047 BKN070 OVC080 1-hr Precip Total: 0.13"
24-hr Min Temp (1am): 59.0°F
24-hr Max Temp (1am): 84.0°F
2018-07-21 23:54 63 59 - 86 120° 15 - 29.92 29.91 7 -RA FEW060 OVC110 1-hr Precip Total: 0.02"
2018-07-21 22:54 66 59 - 78 120° 12 - 29.93 29.92 10 -RA BKN095 OVC120 1-hr Precip Total: Trace
6-hr Precip Total (11pm): 0.00"
2018-07-21 21:54 69 57 - 65 120° 15 - 29.93 29.92 10 -RA SCT070 SCT095 BKN120 1-hr Precip Total: Trace
2018-07-21 20:54 72 56 76 57 120° 18 - 29.92 29.91 10 BKN110 BKN200 1-hr Precip Total: Trace
2018-07-21 19:54 75 59 78 57 110° 13 - 29.90 29.89 10 BKN085 BKN200 6-hr Min Temp (8pm): 75.0°F
6-hr Max Temp (8pm): 82.9°F
2018-07-21 18:54 77 59 79 53 130° 13 - 29.90 29.88 10 FEW047 BKN085 BKN200 None
2018-07-21 17:54 80 60 81 50 130° 13 - 29.89 29.88 10 SCT044 BKN085 BKN200 None
2018-07-21 16:54 82 61 83 49 150° 16 - 29.89 29.88 10 SCT043 BKN085 BKN200 None
2018-07-21 15:54 81 62 82 52 140° 17 - 29.90 29.88 10 BKN040 BKN055 BKN085 BKN200 None
2018-07-21 14:54 82 62 83 50 130° 13 21 29.90 29.88 10 BKN042 BKN055 BKN085 BKN200 None
2018-07-21 13:54 83 62 84 49 100° 12 18 29.91 29.89 10 BKN044 BKN050 BKN080 6-hr Min Temp (2pm): 72.0°F
6-hr Max Temp (2pm): 84.0°F
2018-07-21 12:54 83 62 84 49 140° 15 - 29.91 29.90 10 BKN043 BKN090 BKN200 None

Support USWX by starting your Amazon purchase here.